Time;durP1;ratioP1;P1;durP2;ratioP2;P2;SDS_P1;SDS_P2;PMS_P1;PMS_P2;Temp;Humidity;BMP_temperature;BMP_pressure;BME280_temperature;BME280_humidity;BME280_pressure;Samples;Min_cycle;Max_cycle;Signal;HPM_P1;HPM_P2
2023/03/03 00:00:06;;;;;;;0.30;0.30;;;;;;;9.56;55.45;102655.19;5032989;28;20485;-65
2023/03/03 00:02:32;;;;;;;0.20;0.20;;;;;;;9.32;56.40;102649.06;5033533;28;20025;-64
2023/03/03 00:04:57;;;;;;;0.30;0.30;;;;;;;9.62;55.94;102654.50;5032862;28;20037;-64
2023/03/03 00:07:22;;;;;;;0.30;0.30;;;;;;;9.77;55.51;102659.13;5032907;28;20055;-65
2023/03/03 00:09:49;;;;;;;0.30;0.30;;;;;;;9.85;55.32;102657.22;5033412;28;20030;-65
2023/03/03 00:12:24;;;;;;;0.30;0.30;;;;;;;10.12;55.54;102655.94;5033650;28;20393;-64
2023/03/03 00:14:49;;;;;;;0.30;0.30;;;;;;;10.39;53.52;102650.03;5031948;28;20013;-65
2023/03/03 00:17:27;;;;;;;0.40;0.40;;;;;;;10.23;54.84;102650.97;5012037;28;20104;-64
2023/03/03 00:19:52;;;;;;;0.40;0.40;;;;;;;9.83;54.44;102655.75;5032333;28;20480;-63
2023/03/03 00:22:30;;;;;;;0.30;0.30;;;;;;;10.43;54.07;102654.88;5032762;28;20088;-64
2023/03/03 00:25:12;;;;;;;0.30;0.30;;;;;;;10.57;53.68;102654.06;5032369;28;20041;-65
2023/03/03 00:27:38;;;;;;;0.40;0.40;;;;;;;10.66;52.82;102654.00;5032439;28;20040;-64
2023/03/03 00:30:18;;;;;;;0.30;0.30;;;;;;;11.09;52.04;102650.53;5032792;28;20033;-64
2023/03/03 00:32:51;;;;;;;0.20;0.20;;;;;;;10.93;52.21;102661.50;5030925;28;20104;-65
2023/03/03 00:35:29;;;;;;;0.38;0.38;;;;;;;10.96;52.02;102661.94;5033322;28;20390;-65
2023/03/03 00:38:09;;;;;;;0.30;0.30;;;;;;;10.18;54.50;102656.03;5032480;28;20040;-67
2023/03/03 00:40:37;;;;;;;0.32;0.32;;;;;;;10.35;53.34;102659.44;5015257;28;20052;-63
2023/03/03 00:43:21;;;;;;;0.30;0.30;;;;;;;10.87;52.42;102657.66;5029977;28;20401;-64
2023/03/03 00:45:51;;;;;;;0.30;0.30;;;;;;;8.62;58.11;102669.47;5030332;28;20056;-64
2023/03/03 00:48:39;;;;;;;0.30;0.30;;;;;;;9.52;56.94;102667.28;5018016;28;20054;-66
2023/03/03 00:51:19;;;;;;;0.30;0.30;;;;;;;9.79;55.31;102674.03;5014330;28;20042;-64
2023/03/03 00:53:45;;;;;;;0.40;0.40;;;;;;;8.96;58.27;102671.97;5023793;28;20029;-64
2023/03/03 00:56:10;;;;;;;0.38;0.38;;;;;;;9.69;55.96;102671.56;5018092;28;20052;-64
2023/03/03 00:58:35;;;;;;;0.25;0.25;;;;;;;9.77;55.66;102670.69;5023393;28;20120;-65
2023/03/03 01:01:01;;;;;;;0.30;0.30;;;;;;;9.89;54.87;102671.97;5024358;28;20068;-65
2023/03/03 01:03:26;;;;;;;0.30;0.30;;;;;;;9.26;56.44;102676.56;5032100;28;20124;-68
2023/03/03 01:05:52;;;;;;;0.40;0.40;;;;;;;9.28;56.65;102677.22;5018230;28;20489;-64
2023/03/03 01:08:18;;;;;;;0.20;0.20;;;;;;;9.14;57.22;102677.97;5018926;28;20033;-64
2023/03/03 01:11:16;;;;;;;0.20;0.20;;;;;;;9.28;57.55;102674.56;5022114;28;20091;-65
2023/03/03 01:13:45;;;;;;;0.30;0.30;;;;;;;9.35;57.02;102676.41;4973463;28;20503;-64
2023/03/03 01:16:10;;;;;;;0.30;0.30;;;;;;;8.99;58.15;102669.75;4994669;28;20049;-65
2023/03/03 01:18:36;;;;;;;0.20;0.20;;;;;;;8.60;58.53;102668.78;4989803;28;20046;-65
2023/03/03 01:21:02;;;;;;;0.40;0.40;;;;;;;9.02;57.43;102674.78;4989901;28;20045;-64
2023/03/03 01:23:27;;;;;;;0.30;0.30;;;;;;;9.44;56.79;102669.13;4990539;28;20463;-65
2023/03/03 01:25:53;;;;;;;0.30;0.30;;;;;;;9.78;55.03;102664.31;4973180;28;20077;-66
2023/03/03 01:28:19;;;;;;;0.40;0.40;;;;;;;9.38;56.52;102667.16;4989917;28;20043;-63
2023/03/03 01:30:44;;;;;;;0.40;0.40;;;;;;;9.86;55.01;102663.44;4989742;28;20093;-64
2023/03/03 01:33:10;;;;;;;0.32;0.32;;;;;;;9.58;55.26;102663.91;4989933;28;20045;-64
2023/03/03 01:35:36;;;;;;;0.30;0.30;;;;;;;9.66;55.30;102660.34;4990244;28;20512;-64
2023/03/03 01:38:01;;;;;;;0.30;0.30;;;;;;;9.59;55.07;102654.00;4989740;28;20054;-66
2023/03/03 01:40:29;;;;;;;0.30;0.30;;;;;;;9.22;57.25;102668.03;4998093;28;20034;-63
2023/03/03 01:42:55;;;;;;;0.30;0.30;;;;;;;9.34;56.57;102660.44;5009162;28;20057;-65
2023/03/03 01:45:20;;;;;;;0.20;0.20;;;;;;;9.42;56.61;102658.59;5009033;28;20133;-64
2023/03/03 01:47:54;;;;;;;0.30;0.30;;;;;;;9.64;56.63;102662.34;5009179;28;20042;-64
2023/03/03 01:50:36;;;;;;;0.32;0.32;;;;;;;9.79;55.31;102657.91;5018518;28;20045;-64
2023/03/03 01:53:04;;;;;;;0.40;0.40;;;;;;;9.14;56.40;102656.50;5031450;28;20044;-64
2023/03/03 01:55:35;;;;;;;0.30;0.30;;;;;;;9.49;55.57;102654.19;5031373;28;20037;-65
2023/03/03 01:58:13;;;;;;;;;;;;;;;9.41;56.18;102638.16;5032062;28;20045;-65
2023/03/03 02:00:43;;;;;;;0.30;0.30;;;;;;;8.84;58.25;102652.72;5031513;28;19952;-64
2023/03/03 02:03:09;;;;;;;0.28;0.28;;;;;;;9.08;57.30;102647.28;5031411;28;20065;-64
2023/03/03 02:05:35;;;;;;;0.25;0.25;;;;;;;9.58;55.83;102647.78;5032023;28;20026;-65
2023/03/03 02:08:01;;;;;;;0.30;0.30;;;;;;;9.33;55.99;102651.59;5035180;28;20124;-64
2023/03/03 02:10:28;;;;;;;0.30;0.30;;;;;;;9.30;56.06;102649.22;5038247;28;20120;-64
2023/03/03 02:12:55;;;;;;;0.30;0.30;;;;;;;9.25;56.02;102640.88;5037967;28;20044;-65
2023/03/03 02:15:36;;;;;;;0.30;0.30;;;;;;;9.69;55.08;102646.56;5034189;28;20033;-63
2023/03/03 02:18:17;;;;;;;0.28;0.28;;;;;;;9.89;54.21;102655.00;5018543;28;20046;-64
2023/03/03 02:21:02;;;;;;;0.40;0.40;;;;;;;9.37;55.60;102644.88;5018887;28;20037;-64
2023/03/03 02:23:41;;;;;;;0.30;0.30;;;;;;;9.98;54.87;102649.44;5018761;28;20036;-64
2023/03/03 02:26:28;;;;;;;0.20;0.20;;;;;;;10.73;52.58;102646.88;5020879;28;20045;-65
2023/03/03 02:28:54;;;;;;;0.30;0.30;;;;;;;10.24;52.83;102646.44;5037909;28;20048;-63
2023/03/03 02:31:23;;;;;;;0.30;0.30;;;;;;;10.47;52.16;102644.59;5037895;28;20029;-65
2023/03/03 02:33:50;;;;;;;0.30;0.30;;;;;;;9.98;54.09;102645.91;5037947;28;20128;-65
2023/03/03 02:36:19;;;;;;;0.25;0.25;;;;;;;10.59;52.40;102643.94;5038108;28;20091;-62
2023/03/03 02:38:58;;;;;;;0.40;0.40;;;;;;;10.85;51.75;102646.25;5037780;28;20504;-67
2023/03/03 02:41:35;;;;;;;0.30;0.30;;;;;;;10.51;52.39;102657.47;5038277;28;20057;-64
2023/03/03 02:44:24;;;;;;;0.28;0.28;;;;;;;10.36;53.37;102645.84;5037670;28;20061;-64
2023/03/03 02:46:52;;;;;;;0.28;0.28;;;;;;;10.74;52.34;102644.00;5037564;28;20033;-64
2023/03/03 02:49:21;;;;;;;0.30;0.30;;;;;;;10.37;53.07;102644.84;5037785;28;20120;-66
2023/03/03 02:51:47;;;;;;;0.40;0.40;;;;;;;10.52;52.70;102643.03;5017871;28;20579;-65
2023/03/03 02:54:13;;;;;;;0.20;0.20;;;;;;;10.27;54.02;102636.16;5037214;28;20037;-65
2023/03/03 02:56:39;;;;;;;0.30;0.30;;;;;;;9.83;55.19;102636.94;5038077;28;20033;-64
2023/03/03 02:59:05;;;;;;;0.38;0.38;;;;;;;9.69;55.64;102636.66;5037556;28;20033;-64
2023/03/03 03:01:35;;;;;;;0.38;0.38;;;;;;;9.98;55.43;102641.38;5036967;28;20493;-64
2023/03/03 03:04:04;;;;;;;0.20;0.20;;;;;;;9.86;55.81;102634.75;5036778;28;20037;-64
2023/03/03 03:06:30;;;;;;;0.20;0.20;;;;;;;10.10;55.30;102639.16;5037137;28;20079;-64
2023/03/03 03:08:55;;;;;;;0.40;0.40;;;;;;;9.58;57.01;102628.16;5037310;28;20025;-64
2023/03/03 03:11:21;;;;;;;0.35;0.35;;;;;;;10.64;53.78;102640.72;5037547;28;20021;-64
2023/03/03 03:13:46;;;;;;;0.40;0.40;;;;;;;9.95;55.77;102641.72;5018293;28;20037;-62
2023/03/03 03:16:11;;;;;;;0.30;0.30;;;;;;;10.17;55.30;102645.47;5007571;28;20124;-64
2023/03/03 03:18:36;;;;;;;0.40;0.40;;;;;;;9.46;58.38;102643.81;5015159;28;20073;-66
2023/03/03 03:21:08;;;;;;;0.25;0.25;;;;;;;9.18;59.74;102645.25;5013350;28;20046;-66
2023/03/03 03:23:34;;;;;;;0.40;0.40;;;;;;;9.50;58.17;102644.31;5013976;28;20030;-65
2023/03/03 03:25:59;;;;;;;0.30;0.30;;;;;;;9.50;58.14;102637.09;5015228;28;20034;-64
2023/03/03 03:28:25;;;;;;;0.35;0.35;;;;;;;9.34;58.63;102644.34;5033353;28;20436;-65
2023/03/03 03:30:51;;;;;;;0.50;0.50;;;;;;;10.42;55.04;102644.28;5015390;28;20030;-64
2023/03/03 03:33:16;;;;;;;0.30;0.30;;;;;;;10.32;55.71;102647.22;5033751;28;20041;-64
2023/03/03 03:35:44;;;;;;;0.20;0.20;;;;;;;10.76;53.95;102641.13;5034032;28;20365;-64
2023/03/03 03:38:11;;;;;;;0.28;0.28;;;;;;;10.52;55.07;102642.19;5034889;28;20025;-65
2023/03/03 03:40:36;;;;;;;0.22;0.22;;;;;;;10.19;56.19;102651.50;5034013;28;20551;-64
2023/03/03 03:43:01;;;;;;;0.30;0.30;;;;;;;10.67;54.83;102650.28;5033834;28;20045;-64
2023/03/03 03:45:27;;;;;;;0.30;0.30;;;;;;;10.71;54.80;102659.66;5033646;28;20048;-65
2023/03/03 03:47:52;;;;;;;0.30;0.30;;;;;;;10.78;54.15;102650.69;5033427;28;20104;-64
2023/03/03 03:50:17;;;;;;;0.30;0.30;;;;;;;10.14;56.85;102648.53;5034122;28;20082;-63
2023/03/03 03:52:43;;;;;;;0.30;0.30;;;;;;;10.48;54.84;102649.78;5033650;28;20137;-64
2023/03/03 03:55:09;;;;;;;0.30;0.30;;;;;;;10.61;55.62;102655.38;5033756;28;20038;-64
2023/03/03 03:57:35;;;;;;;0.25;0.25;;;;;;;11.11;53.46;102656.56;5033872;28;20033;-64
2023/03/03 04:00:00;;;;;;;0.30;0.30;;;;;;;10.90;53.89;102651.09;5033387;28;20072;-64
2023/03/03 04:02:26;;;;;;;0.30;0.30;;;;;;;10.99;53.88;102653.50;5033793;28;20453;-65
2023/03/03 04:04:51;;;;;;;0.30;0.30;;;;;;;11.21;53.01;102654.44;5033438;28;20042;-65
2023/03/03 04:07:16;;;;;;;0.40;0.40;;;;;;;11.12;53.35;102647.50;5033390;28;20040;-65
2023/03/03 04:09:42;;;;;;;0.25;0.25;;;;;;;11.13;53.34;102650.00;5033375;28;20140;-65
2023/03/03 04:12:07;;;;;;;0.28;0.28;;;;;;;10.85;54.42;102654.31;5033261;28;20118;-64
2023/03/03 04:14:33;;;;;;;0.30;0.30;;;;;;;10.87;54.28;102654.16;5016057;28;20040;-66
2023/03/03 04:16:58;;;;;;;0.40;0.40;;;;;;;11.10;54.20;102652.22;5015982;28;20173;-65
2023/03/03 04:19:23;;;;;;;0.55;0.45;;;;;;;10.75;55.39;102655.59;5013341;28;20133;-64
2023/03/03 04:21:50;;;;;;;0.20;0.20;;;;;;;10.81;54.71;102653.00;5013388;28;20117;-68
2023/03/03 04:24:15;;;;;;;0.30;0.30;;;;;;;10.78;55.08;102652.53;5013553;28;20030;-64
2023/03/03 04:26:41;;;;;;;0.30;0.30;;;;;;;10.10;57.40;102655.28;5021287;28;20029;-65
2023/03/03 04:29:06;;;;;;;0.98;0.40;;;;;;;11.02;55.07;102652.31;5016107;28;20104;-64
2023/03/03 04:31:32;;;;;;;0.40;0.40;;;;;;;11.18;54.14;102655.66;5033239;28;20124;-65
2023/03/03 04:33:57;;;;;;;0.40;0.40;;;;;;;11.06;54.80;102651.75;5033293;28;20057;-64
2023/03/03 04:36:23;;;;;;;0.28;0.28;;;;;;;11.25;54.01;102658.44;5032724;28;20045;-63
2023/03/03 04:38:48;;;;;;;0.30;0.30;;;;;;;11.01;54.65;102650.63;5032851;28;20062;-65
2023/03/03 04:41:14;;;;;;;0.73;0.40;;;;;;;11.16;54.13;102657.69;5033141;28;20039;-64
2023/03/03 04:43:40;;;;;;;0.52;0.40;;;;;;;11.14;54.65;102654.38;5032768;28;20401;-63
2023/03/03 04:46:05;;;;;;;0.35;0.35;;;;;;;10.98;55.18;102645.63;5032734;28;20045;-64
2023/03/03 04:48:31;;;;;;;0.40;0.40;;;;;;;11.36;53.93;102645.34;5032544;28;20547;-64
2023/03/03 04:50:56;;;;;;;0.52;0.52;;;;;;;11.24;54.10;102651.41;5014837;28;20503;-66
2023/03/03 04:53:21;;;;;;;0.40;0.40;;;;;;;10.80;55.31;102648.66;5033079;28;20056;-63
2023/03/03 04:55:50;;;;;;;0.30;0.30;;;;;;;10.65;56.03;102649.63;5033235;28;20029;-64
2023/03/03 04:58:17;;;;;;;0.30;0.30;;;;;;;10.85;55.97;102648.13;5013005;28;20375;-64
2023/03/03 05:00:42;;;;;;;0.28;0.28;;;;;;;10.98;55.02;102649.16;5012551;28;20543;-64
2023/03/03 05:03:10;;;;;;;0.47;0.47;;;;;;;11.35;54.00;102650.94;5025021;28;20044;-64
2023/03/03 05:05:36;;;;;;;0.30;0.30;;;;;;;11.15;55.03;102650.66;5032400;28;20429;-65
2023/03/03 05:08:01;;;;;;;0.55;0.45;;;;;;;11.10;55.24;102653.06;5031933;28;20145;-64
2023/03/03 05:10:27;;;;;;;0.30;0.30;;;;;;;10.88;55.95;102651.28;5031701;28;20086;-67
2023/03/03 05:12:52;;;;;;;0.40;0.40;;;;;;;11.29;54.40;102646.28;5031580;28;20041;-64
2023/03/03 05:15:18;;;;;;;0.82;0.63;;;;;;;11.12;54.82;102637.56;5031711;28;20034;-64
2023/03/03 05:17:43;;;;;;;0.30;0.30;;;;;;;11.43;54.15;102650.84;5013808;28;20484;-66
2023/03/03 05:20:10;;;;;;;0.50;0.50;;;;;;;11.27;54.40;102651.88;5032505;28;20439;-64
2023/03/03 05:22:35;;;;;;;0.30;0.30;;;;;;;11.34;54.29;102649.28;5031486;28;20041;-63
2023/03/03 05:25:01;;;;;;;0.30;0.30;;;;;;;11.35;54.31;102662.53;5031783;28;20165;-63
2023/03/03 05:27:26;;;;;;;0.32;0.32;;;;;;;11.50;53.96;102655.28;5031600;28;20119;-63
2023/03/03 05:29:51;;;;;;;0.22;0.22;;;;;;;11.42;53.67;102657.22;5031923;28;20467;-65
2023/03/03 05:32:17;;;;;;;0.32;0.32;;;;;;;11.47;54.03;102660.22;5032218;28;20024;-66
2023/03/03 05:34:42;;;;;;;0.35;0.30;;;;;;;11.19;54.86;102661.88;5031835;28;20029;-65
2023/03/03 05:37:08;;;;;;;0.30;0.30;;;;;;;11.62;53.19;102663.72;5032047;28;20508;-65
2023/03/03 05:39:34;;;;;;;0.40;0.40;;;;;;;11.61;53.78;102663.91;5031909;28;20403;-65
2023/03/03 05:41:59;;;;;;;0.30;0.30;;;;;;;11.45;54.35;102660.41;5031413;28;20029;-64
2023/03/03 05:44:25;;;;;;;0.52;0.20;;;;;;;11.38;54.09;102666.69;5032116;28;20190;-66
2023/03/03 05:46:51;;;;;;;0.30;0.30;;;;;;;11.59;53.88;102658.72;5031818;28;20080;-65
2023/03/03 05:49:16;;;;;;;0.40;0.40;;;;;;;11.58;53.21;102669.69;5031498;28;20477;-65
2023/03/03 05:51:42;;;;;;;0.30;0.22;;;;;;;11.70;53.76;102666.34;5031550;28;20041;-64
2023/03/03 05:54:07;;;;;;;0.25;0.25;;;;;;;11.69;53.68;102662.00;5030729;28;20045;-65
2023/03/03 05:56:32;;;;;;;0.40;0.40;;;;;;;11.49;54.27;102669.78;5031619;28;20396;-66
2023/03/03 05:58:58;;;;;;;0.30;0.30;;;;;;;11.45;54.25;102668.47;5031104;28;20038;-65
2023/03/03 06:01:23;;;;;;;0.40;0.40;;;;;;;11.60;54.06;102670.31;5031129;28;20132;-66
2023/03/03 06:03:48;;;;;;;0.22;0.22;;;;;;;11.74;54.17;102674.88;5030830;28;20044;-65
2023/03/03 06:06:15;;;;;;;0.30;0.30;;;;;;;11.56;54.54;102672.53;5031382;28;20176;-64
2023/03/03 06:08:41;;;;;;;0.93;0.40;;;;;;;11.54;54.91;102671.88;5014541;28;20033;-66
2023/03/03 06:11:07;;;;;;;0.20;0.20;;;;;;;11.85;53.30;102669.03;5031553;28;20076;-66
2023/03/03 06:13:32;;;;;;;0.30;0.30;;;;;;;11.54;54.91;102673.78;5031073;28;20416;-65
2023/03/03 06:15:57;;;;;;;0.50;0.40;;;;;;;11.24;55.63;102672.94;5022833;28;20038;-64
2023/03/03 06:18:23;;;;;;;0.20;0.20;;;;;;;11.60;54.60;102667.59;5024412;28;20165;-65
2023/03/03 06:20:53;;;;;;;0.38;0.20;;;;;;;11.48;54.61;102660.03;5020142;28;20033;-64
2023/03/03 06:23:18;;;;;;;0.40;0.40;;;;;;;11.25;55.73;102667.34;5021182;28;20059;-65
2023/03/03 06:25:43;;;;;;;0.70;0.47;;;;;;;11.88;53.90;102669.47;5021844;28;20112;-65
2023/03/03 06:28:09;;;;;;;0.40;0.40;;;;;;;11.91;53.76;102663.69;5030583;28;20080;-65
2023/03/03 06:30:34;;;;;;;0.40;0.40;;;;;;;12.15;53.05;102657.13;5025582;28;20037;-64
2023/03/03 06:33:00;;;;;;;0.30;0.30;;;;;;;12.24;52.28;102667.59;5027162;28;20045;-64
2023/03/03 06:35:25;;;;;;;0.45;0.35;;;;;;;12.09;52.87;102665.97;5023804;28;20033;-64
2023/03/03 06:37:51;;;;;;;0.20;0.20;;;;;;;12.16;52.85;102669.59;5033516;28;20037;-64
2023/03/03 06:40:16;;;;;;;0.20;0.20;;;;;;;11.97;53.09;102671.03;5030658;28;20450;-64
2023/03/03 06:42:42;;;;;;;0.30;0.30;;;;;;;11.88;54.10;102669.47;5011486;28;20041;-63
2023/03/03 06:45:07;;;;;;;0.32;0.32;;;;;;;11.79;53.94;102677.84;5011520;28;20096;-64
2023/03/03 06:47:33;;;;;;;0.20;0.20;;;;;;;11.55;54.61;102678.97;5031607;28;20368;-64
2023/03/03 06:49:58;;;;;;;0.47;0.47;;;;;;;11.22;55.00;102678.47;5025612;28;20040;-65
2023/03/03 06:52:25;;;;;;;0.45;0.45;;;;;;;11.60;54.48;102686.47;5021662;28;20033;-65
2023/03/03 06:55:00;;;;;;;0.32;0.32;;;;;;;12.02;53.25;102681.22;5022147;28;20026;-65
2023/03/03 06:57:29;;;;;;;0.20;0.20;;;;;;;11.76;53.63;102683.59;5025837;28;20029;-65
2023/03/03 07:00:18;;;;;;;0.32;0.32;;;;;;;12.29;52.87;102688.59;5024486;28;20026;-64
2023/03/03 07:02:44;;;;;;;0.40;0.40;;;;;;;11.84;54.00;102694.28;5034294;28;20028;-63
2023/03/03 07:05:14;;;;;;;0.30;0.30;;;;;;;11.66;54.78;102696.50;5034957;28;20029;-65
2023/03/03 07:07:39;;;;;;;0.20;0.20;;;;;;;11.53;55.48;102694.47;5030297;28;20029;-64
2023/03/03 07:10:23;;;;;;;0.32;0.32;;;;;;;11.43;55.80;102702.81;5023917;28;20099;-65
2023/03/03 07:12:48;;;;;;;0.30;0.30;;;;;;;11.33;56.05;102704.09;5024825;28;20053;-65
2023/03/03 07:15:19;;;;;;;0.40;0.40;;;;;;;11.29;56.37;102713.56;5028845;28;20079;-63
2023/03/03 07:17:48;;;;;;;0.32;0.32;;;;;;;11.26;55.96;102706.69;5031073;28;20029;-67
2023/03/03 07:20:25;;;;;;;0.30;0.30;;;;;;;10.88;58.27;102714.97;5034222;28;20021;-64
2023/03/03 07:22:51;;;;;;;0.30;0.30;;;;;;;11.18;57.47;102708.66;5015386;28;20140;-63
2023/03/03 07:25:27;;;;;;;0.35;0.35;;;;;;;11.47;55.81;102720.28;5033807;28;20500;-66
2023/03/03 07:27:58;;;;;;;0.30;0.30;;;;;;;10.29;58.78;102721.97;5033928;28;20124;-64
2023/03/03 07:30:28;;;;;;;0.30;0.30;;;;;;;10.81;58.22;102728.31;5034058;28;20041;-64
2023/03/03 07:32:57;;;;;;;0.20;0.20;;;;;;;9.90;61.46;102726.50;5033710;28;20029;-65
2023/03/03 07:35:34;;;;;;;0.30;0.30;;;;;;;10.40;60.24;102724.25;5016276;28;20473;-64
2023/03/03 07:38:00;;;;;;;0.32;0.32;;;;;;;10.25;60.46;102739.44;5033785;28;20049;-65
2023/03/03 07:40:37;;;;;;;0.40;0.40;;;;;;;9.18;64.61;102743.66;5033642;28;20042;-65
2023/03/03 07:43:42;;;;;;;0.30;0.30;;;;;;;10.98;59.26;102737.09;5033910;28;20040;-65
2023/03/03 07:46:10;;;;;;;0.30;0.30;;;;;;;11.16;57.71;102733.03;4932801;29;20044;-63
2023/03/03 07:48:38;;;;;;;0.20;0.20;;;;;;;11.57;56.55;102743.38;4933636;29;20126;-65
2023/03/03 07:51:14;;;;;;;0.40;0.40;;;;;;;11.04;57.93;102744.44;4933512;29;20035;-65
2023/03/03 07:53:39;;;;;;;0.43;0.43;;;;;;;11.15;58.11;102752.91;4934153;29;20152;-64
2023/03/03 07:56:15;;;;;;;0.20;0.20;;;;;;;11.35;57.27;102748.66;4933513;29;20118;-63
2023/03/03 07:58:42;;;;;;;0.30;0.30;;;;;;;11.34;57.24;102751.56;4933547;29;20047;-64
2023/03/03 08:01:26;;;;;;;0.30;0.30;;;;;;;11.89;56.05;102761.91;4933575;29;20058;-64
2023/03/03 08:03:52;;;;;;;0.32;0.32;;;;;;;10.88;57.91;102760.69;4933523;29;20057;-65
2023/03/03 08:06:35;;;;;;;0.30;0.30;;;;;;;10.37;60.33;102768.44;4933114;29;20139;-65
2023/03/03 08:09:21;;;;;;;0.40;0.40;;;;;;;11.26;57.79;102770.47;4933447;29;20131;-64
2023/03/03 08:11:58;;;;;;;0.20;0.20;;;;;;;10.91;59.38;102771.94;4941052;29;20027;-65
2023/03/03 08:14:27;;;;;;;0.20;0.20;;;;;;;11.49;57.10;102760.47;4953211;29;20522;-65
2023/03/03 08:16:54;;;;;;;0.30;0.30;;;;;;;11.60;56.85;102764.53;4936881;29;20126;-70
2023/03/03 08:19:19;;;;;;;0.40;0.40;;;;;;;11.77;56.69;102771.47;4933325;29;20063;-65
2023/03/03 08:21:45;;;;;;;0.32;0.32;;;;;;;11.73;57.03;102765.63;4988279;28;20041;-64
2023/03/03 08:24:11;;;;;;;0.30;0.30;;;;;;;12.01;55.71;102776.59;5033088;28;20567;-65
2023/03/03 08:26:37;;;;;;;0.30;0.30;;;;;;;11.86;55.85;102770.34;5033270;28;20041;-64
2023/03/03 08:29:02;;;;;;;0.50;0.50;;;;;;;12.18;55.77;102773.50;5032746;28;20128;-65
2023/03/03 08:31:28;;;;;;;0.40;0.40;;;;;;;13.21;52.05;102773.94;5032868;28;20041;-66
2023/03/03 08:33:53;;;;;;;0.30;0.30;;;;;;;13.43;51.31;102770.19;5032895;28;20044;-66
2023/03/03 08:36:19;;;;;;;0.32;0.32;;;;;;;13.85;50.92;102764.63;5033005;28;20071;-66
2023/03/03 08:38:44;;;;;;;0.30;0.30;;;;;;;13.61;51.28;102757.00;5032834;28;20473;-64
2023/03/03 08:41:11;;;;;;;0.30;0.30;;;;;;;13.93;50.51;102763.63;5024414;28;20040;-66
2023/03/03 08:43:36;;;;;;;0.10;0.10;;;;;;;13.62;51.26;102764.06;5023450;28;20049;-64
2023/03/03 08:46:05;;;;;;;0.32;0.32;;;;;;;13.56;50.88;102767.56;5029359;28;20053;-65
2023/03/03 08:48:32;;;;;;;0.40;0.40;;;;;;;13.88;50.85;102766.09;5008916;28;20054;-64
2023/03/03 08:50:58;;;;;;;0.50;0.50;;;;;;;14.30;49.35;102763.19;5009504;28;20036;-65
2023/03/03 08:53:24;;;;;;;0.30;0.30;;;;;;;12.60;53.52;102763.81;5009564;28;20045;-65
2023/03/03 08:55:49;;;;;;;0.30;0.30;;;;;;;13.51;51.98;102752.97;4991078;28;20429;-65
2023/03/03 08:58:17;;;;;;;0.30;0.30;;;;;;;13.62;51.29;102766.75;5010345;28;20334;-64
2023/03/03 09:00:43;;;;;;;0.30;0.30;;;;;;;13.18;52.98;102766.25;5028916;28;20037;-63
2023/03/03 09:03:08;;;;;;;0.20;0.20;;;;;;;13.73;52.09;102766.22;5029234;28;20049;-65
2023/03/03 09:05:36;;;;;;;0.40;0.40;;;;;;;13.56;51.39;102770.25;5029981;28;20029;-65
2023/03/03 09:08:03;;;;;;;0.40;0.40;;;;;;;13.82;51.59;102766.88;5028688;28;20045;-63
2023/03/03 09:10:30;;;;;;;0.40;0.40;;;;;;;14.25;50.24;102762.91;5021945;28;20041;-65
2023/03/03 09:13:00;;;;;;;0.30;0.30;;;;;;;14.65;49.72;102764.75;5028726;28;20044;-64
2023/03/03 09:15:34;;;;;;;0.28;0.28;;;;;;;14.68;49.50;102766.22;5027742;28;20044;-64
2023/03/03 09:18:13;;;;;;;0.50;0.50;;;;;;;14.94;48.75;102767.09;5009599;28;20076;-65
2023/03/03 09:20:47;;;;;;;0.45;0.45;;;;;;;15.04;47.88;102765.81;5026749;28;20025;-65
2023/03/03 09:23:36;;;;;;;0.20;0.20;;;;;;;14.95;47.92;102768.75;5026012;28;20044;-64
2023/03/03 09:26:10;;;;;;;0.40;0.40;;;;;;;15.36;47.42;102763.13;5027293;28;20039;-65
2023/03/03 09:28:36;;;;;;;0.38;0.38;;;;;;;15.01;47.42;102766.25;5008669;28;20117;-65
2023/03/03 09:31:04;;;;;;;0.40;0.40;;;;;;;15.13;47.42;102761.88;5009621;28;20035;-66
2023/03/03 09:33:48;;;;;;;0.40;0.40;;;;;;;14.85;47.81;102760.22;5025145;28;20108;-67
2023/03/03 09:36:36;;;;;;;0.35;0.35;;;;;;;15.54;47.14;102762.50;5025875;28;20099;-64
2023/03/03 09:39:15;;;;;;;0.35;0.35;;;;;;;15.65;46.77;102751.84;5026936;28;21017;-64
2023/03/03 09:41:45;;;;;;;0.35;0.35;;;;;;;15.75;45.90;102754.97;5027238;28;20045;-66
2023/03/03 09:44:34;;;;;;;0.30;0.30;;;;;;;15.57;46.77;102754.78;5025652;28;20076;-65
2023/03/03 09:47:11;;;;;;;0.40;0.40;;;;;;;15.00;48.05;102757.28;5020114;28;20498;-65
2023/03/03 09:49:43;;;;;;;0.30;0.30;;;;;;;14.93;48.41;102757.31;5014482;28;20041;-64
2023/03/03 09:52:12;;;;;;;0.20;0.20;;;;;;;15.80;46.36;102754.34;5022540;28;20820;-64
2023/03/03 09:55:19;;;;;;;0.40;0.40;;;;;;;15.49;46.14;102762.28;5019627;28;20042;-65
2023/03/03 09:57:57;;;;;;;0.30;0.30;;;;;;;16.01;45.57;102764.88;4959169;28;20047;-65
2023/03/03 10:00:36;;;;;;;0.30;0.30;;;;;;;15.26;46.98;102765.44;4964539;28;20043;-65
2023/03/03 10:03:07;;;;;;;0.35;0.35;;;;;;;15.43;46.74;102772.09;4965711;28;20466;-65
2023/03/03 10:06:01;;;;;;;0.30;0.30;;;;;;;15.59;46.30;102765.41;4967517;28;20031;-65
2023/03/03 10:09:11;;;;;;;0.20;0.20;;;;;;;15.16;47.66;102766.88;4966230;28;20503;-65
2023/03/03 10:11:49;;;;;;;0.20;0.20;;;;;;;13.99;49.69;102770.94;4963063;28;20678;-64
2023/03/03 10:14:35;;;;;;;0.40;0.40;;;;;;;14.08;49.58;102769.72;4965453;28;20492;-63
2023/03/03 10:17:21;;;;;;;0.30;0.30;;;;;;;14.39;49.49;102763.84;4962330;28;20031;-65
2023/03/03 10:19:54;;;;;;;0.40;0.40;;;;;;;15.33;47.62;102765.44;4964533;28;20129;-64
2023/03/03 10:22:30;;;;;;;0.30;0.30;;;;;;;16.17;45.92;102758.16;4964731;28;20618;-64
2023/03/03 10:25:03;;;;;;;0.40;0.40;;;;;;;15.28;46.39;102770.63;4964559;28;20574;-65
2023/03/03 10:27:43;;;;;;;0.30;0.30;;;;;;;16.63;45.01;102761.47;4964343;28;20698;-64
2023/03/03 10:30:45;;;;;;;0.30;0.30;;;;;;;16.79;44.76;102765.53;4968233;28;20170;-65
2023/03/03 10:33:25;;;;;;;0.30;0.30;;;;;;;17.29;42.57;102764.53;4930130;29;20127;-64
2023/03/03 10:36:18;;;;;;;0.22;0.22;;;;;;;17.05;42.59;102758.03;4947404;28;20047;-64
2023/03/03 10:38:49;;;;;;;0.20;0.20;;;;;;;16.55;41.60;102762.56;4950053;29;20534;-66
2023/03/03 10:41:30;;;;;;;0.20;0.20;;;;;;;15.38;45.72;102773.75;4948462;28;20046;-65
2023/03/03 10:44:17;;;;;;;0.10;0.10;;;;;;;15.29;46.55;102769.59;4951509;28;20039;-65
2023/03/03 10:47:01;;;;;;;0.20;0.20;;;;;;;14.45;48.33;102766.56;4949270;28;20071;-65
2023/03/03 10:49:44;;;;;;;0.30;0.30;;;;;;;14.40;48.88;102766.34;4946294;29;20125;-64
2023/03/03 10:52:25;;;;;;;0.22;0.22;;;;;;;13.39;50.52;102771.59;4949563;29;20533;-66
2023/03/03 10:55:07;;;;;;;0.13;0.13;;;;;;;14.27;49.49;102768.16;4947985;28;20039;-65
2023/03/03 10:57:40;;;;;;;0.30;0.30;;;;;;;13.71;48.65;102762.03;4945725;29;20051;-64
2023/03/03 11:00:32;;;;;;;0.20;0.20;;;;;;;14.72;47.07;102772.91;4941927;28;20090;-65
2023/03/03 11:03:12;;;;;;;0.30;0.30;;;;;;;15.54;45.60;102765.22;4939583;28;20052;-64
2023/03/03 11:05:55;;;;;;;0.20;0.20;;;;;;;16.14;45.16;102753.97;4939092;29;20036;-64
2023/03/03 11:08:44;;;;;;;0.22;0.22;;;;;;;16.26;43.79;102762.28;4928758;29;20135;-63
2023/03/03 11:11:26;;;;;;;0.30;0.30;;;;;;;16.26;43.42;102757.69;5021851;28;20120;-63
2023/03/03 11:13:56;;;;;;;0.25;0.25;;;;;;;14.61;44.64;102755.38;5021203;28;20037;-62
2023/03/03 11:16:53;;;;;;;0.20;0.20;;;;;;;14.54;45.53;102756.41;5016901;28;20616;-62
2023/03/03 11:19:31;;;;;;;0.20;0.20;;;;;;;14.29;45.37;102758.00;5008542;28;20377;-64
2023/03/03 11:22:24;;;;;;;0.20;0.20;;;;;;;14.49;45.46;102759.72;5008297;28;20517;-63
2023/03/03 11:25:20;;;;;;;0.30;0.30;;;;;;;15.21;43.80;102762.53;5009426;28;20498;-64
2023/03/03 11:28:24;;;;;;;0.30;0.30;;;;;;;15.45;43.55;102755.66;5024331;28;20060;-64
2023/03/03 11:31:15;;;;;;;0.30;0.30;;;;;;;15.76;42.80;102751.19;4968543;28;20031;-62
2023/03/03 11:33:55;;;;;;;0.20;0.20;;;;;;;15.98;41.64;102743.59;4975613;28;20039;-63
2023/03/03 11:36:27;;;;;;;0.38;0.38;;;;;;;15.23;42.54;102744.19;4973087;28;20085;-63
2023/03/03 11:38:57;;;;;;;0.20;0.20;;;;;;;15.99;41.81;102742.56;4978942;28;20097;-66
2023/03/03 11:41:36;;;;;;;0.30;0.30;;;;;;;16.91;40.52;102736.63;4972165;28;20038;-63
2023/03/03 11:44:24;;;;;;;0.22;0.22;;;;;;;16.16;41.20;102741.03;4972934;28;20046;-64